Atka, AK

5:56 AM HDT on March 24, 2017 (GMT -0900)
Atka | | Change Station

Elev 56 ft 52.22 °N, 174.21 °W | Updated 20 minutes ago

Rain
Rain
43 °F
Feels Like 32 °F
N
32
Wind Variable Wind from East
Gusts 40 mph

Today
High -- | Low -- °F
--% Chance of Precip.
Yesterday
High -- | Low -- °F
Precip. -- in
Pressure 29.30 in
Visibility 10.0 miles
Clouds Few 1000 ft
Scattered Clouds 2700 ft
Mostly Cloudy 3200 ft
Windchill 32 °F
Dew Point 30 °F
Humidity 61%
Rainfall 0.00 in
Snow Depth Not available.
8:28 AM 8:58 PM
Waning Crescent, 15% visible
METAR PAAK 241436Z 08028G35KT 10SM FEW010 SCT027 BKN032 06/M01 A2930 RMK AO1
Pressure 29.30 in
Visibility 10.0 miles
Clouds Few 1000 ft
Scattered Clouds 2700 ft
Mostly Cloudy 3200 ft
Windchill 32 °F
Dew Point 30 °F
Humidity 61%
Rainfall 0.00 in
Snow Depth Not available.
8:28 AM 8:58 PM
Waning Crescent, 15% visible
METAR PAAK 241436Z 08028G35KT 10SM FEW010 SCT027 BKN032 06/M01 A2930 RMK AO1

Get Severe Weather Alerts

Thanks for signing up!

Be on the lookout for a verification email in your inbox.

You'll start receiving the daily forecast at 8 AM.

×

10-Day Weather Forecast

Almanac

Astronomy

Mar. 24, 2017 Rise Set
Actual Time
Civil Twilight
Nautical Twilight
Astronomical Twilight
Moon
Length of Visible Light
Length of Day
Tomorrow will be .
, % of the Moon is Illuminated

Today's Extremes

State Highs State Lows

Community

WunderPhotos

Upload Photos

1,962,540 photos uploaded!

WunderBlog® & News

Nearby

Air Quality

  Air Quality AQ Index Pollutant
Not available.

Snow Depth

Station Depth Elevation

Earthquake Activity

City Distance Mag. Time & Date
Minimum magnitude displayed is 2.5.

Earthquake Activity

City Distance Mag. Time & Date
Minimum magnitude displayed is 2.5.

Coastal Water Temperatures

Place Temperature

Stations

Nearby Weather Stations

Station Location Temp. Windchill Dew Point Humidity Wind Precip. Elev Updated Type
                   

Watches & Warnings

There are currently no watches in effect.